McAfee, NJ (07428)

5:01 PM EDT on April 27, 2015 (GMT -0400)
Falcon Ridge | | Change Station
CLOSE
Current Station
Personal Weather Station
Location: Hamburg, NJ
Elevation: 597 ft
Nearby Weather Stations

Elev 597 ft 41.15 °N, 74.57 °W | Updated 15 minutes ago

Overcast
Overcast
57.0 °F
Feels Like 57.0 °F
N
5.3
Wind Variable Wind from NW

Today
High -- | Low -- °F
--% Chance of Precip.
Yesterday
High -- | Low -- °F
Precip. -- in
6:01 AM 7:50 PM
Waxing Gibbous, 68% visible
Pressure 29.69 in
Visibility 10.0 miles
Clouds Scattered Clouds 5000 ft
Mostly Cloudy 6000 ft
Overcast 7000 ft
Dew Point 36 °F
Humidity 46%
Rainfall 0.00 in
Snow Depth Not available.
UV 1 out of 12
Pollen 10.40 out of 12
Air Quality Not available.
Flu Activity Local Activity
METAR KFWN 272053Z AUTO 32009KT 290V350 10SM -RA SCT050 BKN060 OVC070 13/01 A2968 RMK AO2 RAB45 SLP052 P0000 60000 T01280011 57006

More Conditions Fewer Conditions

Pressure 29.69 in
Visibility 10.0 miles
Clouds Scattered Clouds 5000 ft
Mostly Cloudy 6000 ft
Overcast 7000 ft
Dew Point 36 °F
Humidity 46%
Rainfall 0.00 in
Snow Depth Not available.
UV 1 out of 12
Pollen 10.40 out of 12
Air Quality Not available.
Flu Activity Local Activity
METAR KFWN 272053Z AUTO 32009KT 290V350 10SM -RA SCT050 BKN060 OVC070 13/01 A2968 RMK AO2 RAB45 SLP052 P0000 60000 T01280011 57006

More Conditions Fewer Conditions

10-Day Weather Forecast

Almanac

Astronomy

Apr. 27, 2015 Rise Set
Actual Time
Civil Twilight
Nautical Twilight
Astronomical Twilight
Moon
Length of Visible Light
Length of Day
Tomorrow will be .
, % of the Moon is Illuminated

Today's Extremes

State Highs State Lows

Community

WunderPhotos

Upload Photos

1,817,426 photos uploaded!

WunderBlogs® & News

Nearby

Air Quality

  Air Quality AQ Index Pollutant
Not available.

Snow Depth

Station Depth Elevation

Earthquake Activity

City Distance Mag. Time & Date
Minimum magnitude displayed is 2.5.

Coastal Water Temperatures

Place Temperature

Stations

Nearby Weather Stations

Station Location Temp. Windchill Dew Point Humidity Wind Precip. Elev Updated Type